Quandahl, Iowa
Current Conditions -  °F | °C
As of 4:15 PM on Wednesday 28 Jan 2015 (Local Time) from KDEH Reporting Station
Clear Clear  
Wind Chill: 23°   Ceiling: Unl
Heat Index: 34°   Visibility: 10mi
Dew Point: 27°   Wind: 18mph
Humidity: 75%   Direction: 160°SSE
Pressure: 29.78"   Gusts: 29mph
Location:  43.3626°N, 91.8164°W
Report Text: KDEH 282215Z AUTO 16016G25KT 10SM CLR 01/M03 A2978 RMK AO2
Loading
Personal Weather Stations






























Interactive Weather Map New forecast layout! Learn more

10-Day Weather Forecast

Advertisements
Track Severe Weather on mobile